Terminal Aerodrome Forecast
Issued by NWS Knoxville/Tri Cities, TN

Home | Current Version | Previous Version | Text Only | Print | Product List | Glossary On
Versions: 1 2 3 4 5 6 7 8 9 10 11 12 13 14 15 16 17 18 19 20 21 22 23 24 25 26 27
000
FTUS44 KMRX 280525
TAFTRI
TAF
KTRI 280525Z 2806/2906 00000KT 4SM BR SCT080 BKN150
     FM280800 00000KT 2SM BR SCT150
      TEMPO 2809/2812 1/2SM FG BKN001
     FM281330 00000KT 3SM BR SCT002
     FM281430 00000KT P6SM SCT030
     FM281800 25005KT P6SM SCT040
     FM282200 28006KT P6SM VCTS BKN050CB
     FM290200 VRB03KT P6SM VCSH BKN040 OVC100=

USA.gov is the U.S. government's official web portal to all federal, state and local government web resources and services.